Time;durP1;ratioP1;P1;durP2;ratioP2;P2;SDS_P1;SDS_P2;PMS_P1;PMS_P2;Temp;Humidity;BMP_temperature;BMP_pressure;BME280_temperature;BME280_humidity;BME280_pressure;Samples;Min_cycle;Max_cycle;Signal;HPM_P1;HPM_P2
2021/05/14 00:01:43;;;;;;;22.37;19.97;;;12.60;22.10;;;;;;5112566;28;20580;-79
2021/05/14 00:04:09;;;;;;;21.90;19.57;;;12.50;22.50;;;;;;5112501;28;20167;-78
2021/05/14 00:06:35;;;;;;;22.50;20.27;;;12.50;25.60;;;;;;5112686;28;20182;-78
2021/05/14 00:09:00;;;;;;;22.30;20.07;;;12.40;30.50;;;;;;5114413;28;20670;-78
2021/05/14 00:11:26;;;;;;;23.37;20.80;;;12.50;28.30;;;;;;5116593;28;20206;-78
2021/05/14 00:13:53;;;;;;;25.60;22.03;;;12.50;27.00;;;;;;5116493;28;20163;-78
2021/05/14 00:16:20;;;;;;;23.83;21.33;;;12.50;25.50;;;;;;5098370;28;20171;-78
2021/05/14 00:18:46;;;;;;;25.50;22.73;;;12.50;24.60;;;;;;5116168;28;20168;-78
2021/05/14 00:21:11;;;;;;;25.43;21.77;;;12.40;28.40;;;;;;5097853;28;20229;-78
2021/05/14 00:23:37;;;;;;;23.50;21.10;;;12.40;30.90;;;;;;5116515;28;20167;-78
2021/05/14 00:26:03;;;;;;;23.77;21.37;;;12.50;32.90;;;;;;5116269;28;20187;-78
2021/05/14 00:28:28;;;;;;;22.80;20.37;;;12.40;34.20;;;;;;5116390;28;20165;-79
2021/05/14 00:30:54;;;;;;;24.47;21.73;;;12.40;31.90;;;;;;5116286;28;20195;-79
2021/05/14 00:33:19;;;;;;;24.27;21.53;;;12.50;31.30;;;;;;5116054;28;20170;-78
2021/05/14 00:35:45;;;;;;;22.63;20.33;;;12.30;33.70;;;;;;5116161;28;20670;-77
2021/05/14 00:38:11;;;;;;;22.77;20.17;;;12.20;40.50;;;;;;5116133;28;20627;-79
2021/05/14 00:40:36;;;;;;;22.53;20.23;;;12.10;46.40;;;;;;5097885;28;20175;-79
2021/05/14 00:43:02;;;;;;;23.20;20.80;;;12.00;49.00;;;;;;5116118;28;20170;-79
2021/05/14 00:45:28;;;;;;;23.50;21.00;;;12.00;51.00;;;;;;5116300;28;20262;-78
2021/05/14 00:47:53;;;;;;;24.47;21.60;;;12.10;51.80;;;;;;5115774;28;20209;-78
2021/05/14 00:50:20;;;;;;;25.30;22.60;;;12.10;50.90;;;;;;5115905;28;20193;-79
2021/05/14 00:52:45;;;;;;;23.77;21.17;;;12.20;48.60;;;;;;5115819;28;20171;-79
2021/05/14 00:55:11;;;;;;;24.70;22.10;;;12.20;47.60;;;;;;5115863;28;20159;-78
2021/05/14 00:57:39;;;;;;;25.20;22.60;;;12.10;49.20;;;;;;5115873;28;20163;-78
2021/05/14 01:00:05;;;;;;;24.23;21.80;;;12.10;48.90;;;;;;5115469;28;20166;-78
2021/05/14 01:02:31;;;;;;;24.60;22.00;;;12.10;50.20;;;;;;5115265;28;20191;-78
2021/05/14 01:04:57;;;;;;;24.20;21.60;;;12.10;51.90;;;;;;5115413;28;20642;-78
2021/05/14 01:07:23;;;;;;;22.60;20.30;;;12.10;52.60;;;;;;5097541;28;20593;-77
2021/05/14 01:09:50;;;;;;;24.90;21.97;;;12.20;50.90;;;;;;5115761;28;20167;-79
2021/05/14 01:12:15;;;;;;;26.67;23.87;;;12.10;50.60;;;;;;5115144;28;20236;-78
2021/05/14 01:14:42;;;;;;;24.47;21.87;;;12.10;52.50;;;;;;5114910;28;20170;-79
2021/05/14 01:17:08;;;;;;;25.10;22.43;;;12.10;53.50;;;;;;5115195;28;20163;-79
2021/05/14 01:19:33;;;;;;;22.57;20.27;;;12.20;52.10;;;;;;5115072;28;20265;-80
2021/05/14 01:22:00;;;;;;;24.07;21.33;;;12.10;51.90;;;;;;5096919;28;20258;-79
2021/05/14 01:24:25;;;;;;;23.13;20.73;;;12.10;55.70;;;;;;5096677;28;20182;-79
2021/05/14 01:26:51;;;;;;;23.97;21.50;;;12.10;56.00;;;;;;5115113;28;20186;-78
2021/05/14 01:29:17;;;;;;;22.53;20.33;;;12.20;56.00;;;;;;5096780;28;20529;-79
2021/05/14 01:31:43;;;;;;;23.13;20.80;;;12.30;53.20;;;;;;5114983;28;20202;-78
2021/05/14 01:34:08;;;;;;;23.90;21.23;;;12.30;48.30;;;;;;5114774;28;20183;-77
2021/05/14 01:36:41;;;;;;;22.77;20.47;;;12.30;47.60;;;;;;5114902;28;20189;-77
2021/05/14 01:39:09;;;;;;;24.17;21.63;;;12.50;45.50;;;;;;5096528;28;20175;-78
2021/05/14 01:41:35;;;;;;;23.23;20.87;;;12.60;43.30;;;;;;5115001;28;20182;-79
2021/05/14 01:44:02;;;;;;;21.90;19.60;;;12.60;38.20;;;;;;5114774;28;20163;-78
2021/05/14 01:46:27;;;;;;;21.27;19.07;;;12.70;36.20;;;;;;5114630;28;20507;-78
2021/05/14 01:48:54;;;;;;;23.03;20.53;;;12.70;33.60;;;;;;5114968;28;20233;-77
2021/05/14 01:51:20;;;;;;;23.10;20.63;;;12.80;26.20;;;;;;5114694;28;20210;-78
2021/05/14 01:53:46;;;;;;;21.87;19.60;;;12.80;21.50;;;;;;5114851;28;20181;-79
2021/05/14 01:56:12;;;;;;;21.40;19.20;;;12.60;24.80;;;;;;5114969;28;20171;-78
2021/05/14 01:58:37;;;;;;;21.90;19.73;;;12.40;30.70;;;;;;5114990;28;20544;-78
2021/05/14 02:01:04;;;;;;;22.60;19.73;;;12.30;31.60;;;;;;5114347;28;20654;-79
2021/05/14 02:03:30;;;;;;;21.47;19.27;;;12.10;35.80;;;;;;5114652;28;20596;-78
2021/05/14 02:05:56;;;;;;;19.73;17.73;;;12.10;42.80;;;;;;5114649;28;20178;-78
2021/05/14 02:08:22;;;;;;;18.53;16.63;;;12.10;37.50;;;;;;5114532;28;20577;-78
2021/05/14 02:10:48;;;;;;;19.40;17.40;;;12.10;34.20;;;;;;5114401;28;20199;-78
2021/05/14 02:13:14;;;;;;;16.70;15.03;;;12.10;25.40;;;;;;5114507;28;20181;-77
2021/05/14 02:15:40;;;;;;;19.23;17.27;;;12.10;18.90;;;;;;5114226;28;20631;-78
2021/05/14 02:18:06;;;;;;;20.37;18.27;;;12.10;18.70;;;;;;5114456;28;20203;-77
2021/05/14 02:20:33;;;;;;;18.70;16.70;;;12.10;20.30;;;;;;5114420;28;20182;-79
2021/05/14 02:22:59;;;;;;;16.03;14.47;;;12.10;20.60;;;;;;5114388;28;20633;-79
2021/05/14 02:25:24;;;;;;;14.90;13.40;;;12.10;14.20;;;;;;5113983;28;20179;-78
2021/05/14 02:27:50;;;;;;;15.57;13.97;;;12.20;10.60;;;;;;5114031;28;20171;-78
2021/05/14 02:30:17;;;;;;;15.37;13.77;;;12.40;3.80;;;;;;5113856;28;20191;-77
2021/05/14 02:32:43;;;;;;;15.73;13.03;;;12.50;1.00;;;;;;5113504;28;20167;-78
2021/05/14 02:35:10;;;;;;;13.57;12.07;;;12.40;1.00;;;;;;5114032;28;20236;-78
2021/05/14 02:37:36;;;;;;;12.97;11.63;;;12.40;1.00;;;;;;5113949;28;20250;-79
2021/05/14 02:40:02;;;;;;;11.70;10.20;;;12.30;1.00;;;;;;5114018;28;20587;-78
2021/05/14 02:42:28;;;;;;;12.70;10.13;;;12.30;1.00;;;;;;5113650;28;20206;-77
2021/05/14 02:44:54;;;;;;;10.87;9.80;;;12.30;1.00;;;;;;5113990;28;20539;-77
2021/05/14 02:47:20;;;;;;;10.37;9.17;;;12.40;1.00;;;;;;5113850;28;20177;-78
2021/05/14 02:49:45;;;;;;;9.77;7.63;;;12.50;1.00;;;;;;5113918;28;20167;-79
2021/05/14 02:52:11;;;;;;;8.40;7.50;;;12.20;1.00;;;;;;5095225;28;20207;-78
2021/05/14 02:54:37;;;;;;;9.07;7.90;;;12.10;1.00;;;;;;5095496;28;20175;-78
2021/05/14 02:57:04;;;;;;;12.80;8.20;;;12.00;1.00;;;;;;5113428;28;20185;-77
2021/05/14 02:59:30;;;;;;;9.90;7.03;;;12.10;1.00;;;;;;5113843;28;20216;-79
2021/05/14 03:01:56;;;;;;;10.17;7.73;;;12.30;1.00;;;;;;5113421;28;20217;-77
2021/05/14 03:04:22;;;;;;;8.33;7.43;;;12.40;1.00;;;;;;5113660;28;20159;-79
2021/05/14 03:06:47;;;;;;;8.20;6.43;;;12.50;1.00;;;;;;5113556;28;20217;-78
2021/05/14 03:09:13;;;;;;;7.40;6.07;;;12.50;1.00;;;;;;5113683;28;20530;-78
2021/05/14 03:11:39;;;;;;;7.33;5.93;;;12.50;1.00;;;;;;5112964;28;20232;-78
2021/05/14 03:14:06;;;;;;;6.43;5.73;;;12.60;1.00;;;;;;5113493;28;20170;-79
2021/05/14 03:16:33;;;;;;;6.00;5.03;;;12.50;1.00;;;;;;5113184;28;20203;-77
2021/05/14 03:18:58;;;;;;;6.07;4.90;;;12.60;1.00;;;;;;5113487;28;20220;-77
2021/05/14 03:21:24;;;;;;;6.87;5.10;;;12.50;1.00;;;;;;5113297;28;20179;-79
2021/05/14 03:23:50;;;;;;;8.43;5.43;;;12.50;1.00;;;;;;5113528;28;20177;-78
2021/05/14 03:26:15;;;;;;;8.47;5.57;;;12.20;1.00;;;;;;5112716;28;20221;-79
2021/05/14 03:28:41;;;;;;;6.87;5.13;;;12.20;1.00;;;;;;5113382;28;20171;-78
2021/05/14 03:31:07;;;;;;;6.83;5.20;;;12.10;1.00;;;;;;5113228;28;20684;-76
2021/05/14 03:33:32;;;;;;;7.77;5.43;;;12.00;1.00;;;;;;5113311;28;20175;-79
2021/05/14 03:35:58;;;;;;;7.30;5.47;;;12.00;1.00;;;;;;5113536;28;20232;-78
2021/05/14 03:38:31;;;;;;;5.57;4.50;;;12.00;1.00;;;;;;5113113;28;20651;-78
2021/05/14 03:40:57;;;;;;;7.53;5.10;;;12.00;1.00;;;;;;5094622;28;20175;-78
2021/05/14 03:43:22;;;;;;;7.20;5.03;;;11.90;1.00;;;;;;5115410;28;20173;-79
2021/05/14 03:45:49;;;;;;;7.17;5.83;;;11.80;1.00;;;;;;5117395;28;20163;-79
2021/05/14 03:48:18;;;;;;;8.43;5.40;;;11.80;1.00;;;;;;5116937;28;20166;-77
2021/05/14 03:50:52;;;;;;;6.80;5.57;;;11.70;1.00;;;;;;5116913;28;20697;-79
2021/05/14 03:53:21;;;;;;;6.63;5.30;;;11.70;1.00;;;;;;5116633;28;20651;-79
2021/05/14 03:55:48;;;;;;;8.50;5.00;;;11.60;1.00;;;;;;5116759;28;20230;-79
2021/05/14 03:58:14;;;;;;;5.90;4.30;;;11.50;1.00;;;;;;5116918;28;20635;-79
2021/05/14 04:00:40;;;;;;;4.80;3.80;;;11.40;1.00;;;;;;5116988;28;20167;-79
2021/05/14 04:03:06;;;;;;;7.03;4.50;;;11.50;1.00;;;;;;5116705;28;20186;-78
2021/05/14 04:05:34;;;;;;;5.47;3.53;;;11.50;1.00;;;;;;5116712;28;20174;-78
2021/05/14 04:07:59;;;;;;;7.57;4.10;;;11.40;1.00;;;;;;5118268;28;20261;-77
2021/05/14 04:15:34;;;;;;;5.23;3.80;;;11.30;1.00;;;;;;5116806;28;20186;-77
2021/05/14 04:18:00;;;;;;;7.40;3.60;;;11.50;1.00;;;;;;5116676;28;20630;-78
2021/05/14 04:20:26;;;;;;;5.53;3.93;;;11.60;1.00;;;;;;5116570;28;20171;-79
2021/05/14 04:22:51;;;;;;;9.90;3.93;;;11.70;1.00;;;;;;5116384;28;20171;-79
2021/05/14 04:25:17;;;;;;;5.93;4.10;;;11.60;1.00;;;;;;5116027;28;20170;-79
2021/05/14 04:27:43;;;;;;;4.73;3.50;;;11.60;1.00;;;;;;5116535;28;20246;-79
2021/05/14 04:30:09;;;;;;;5.70;3.70;;;11.80;1.00;;;;;;5116572;28;20266;-77
2021/05/14 04:32:35;;;;;;;5.80;4.20;;;11.60;1.00;;;;;;5116284;28;20186;-79
2021/05/14 04:35:01;;;;;;;7.47;3.77;;;11.50;1.00;;;;;;5116085;28;20194;-79
2021/05/14 04:37:26;;;;;;;6.27;4.13;;;11.40;1.00;;;;;;5116239;28;20205;-78
2021/05/14 04:39:52;;;;;;;9.23;4.30;;;11.40;1.00;;;;;;5115488;28;20167;-78
2021/05/14 04:42:17;;;;;;;5.27;3.80;;;11.40;1.00;;;;;;5116255;28;20198;-78
2021/05/14 04:44:43;;;;;;;7.07;5.03;;;11.60;1.00;;;;;;5115843;28;20205;-78
2021/05/14 04:47:09;;;;;;;5.13;3.57;;;11.60;1.00;;;;;;5116165;28;20217;-79
2021/05/14 04:49:34;;;;;;;5.33;3.63;;;11.70;1.00;;;;;;5117393;28;20171;-78
2021/05/14 04:52:00;;;;;;;8.60;4.73;;;11.60;1.00;;;;;;5116284;28;20207;-79
2021/05/14 04:54:26;;;;;;;5.67;4.00;;;11.60;1.00;;;;;;5114955;28;20539;-79
2021/05/14 04:56:52;;;;;;;7.47;4.77;;;11.60;1.00;;;;;;5116098;28;20333;-78
2021/05/14 04:59:18;;;;;;;5.43;3.93;;;11.70;1.00;;;;;;5115741;28;20227;-78
2021/05/14 05:01:44;;;;;;;5.50;3.83;;;11.60;1.00;;;;;;5115702;28;20179;-78
2021/05/14 05:04:10;;;;;;;4.97;3.87;;;11.60;1.00;;;;;;5097388;28;20183;-77
2021/05/14 05:06:37;;;;;;;5.97;3.97;;;11.70;1.00;;;;;;5115722;28;20637;-78
2021/05/14 05:09:04;;;;;;;5.03;3.50;;;11.70;1.00;;;;;;5115441;28;20159;-78
2021/05/14 05:11:29;;;;;;;8.10;3.90;;;11.80;1.00;;;;;;5115680;28;20199;-78
2021/05/14 05:13:55;;;;;;;5.20;3.60;;;11.90;1.00;;;;;;5115589;28;20170;-78
2021/05/14 05:16:21;;;;;;;6.83;3.67;;;12.00;1.00;;;;;;5115819;28;20252;-76
2021/05/14 05:18:46;;;;;;;6.27;4.33;;;12.00;1.00;;;;;;5115495;28;20195;-78
2021/05/14 05:21:12;;;;;;;6.33;3.60;;;12.10;1.00;;;;;;5115598;28;20166;-77
2021/05/14 05:23:37;;;;;;;6.07;4.03;;;12.30;1.00;;;;;;5115284;28;20543;-78
2021/05/14 05:26:03;;;;;;;4.53;3.20;;;12.20;1.00;;;;;;5115380;28;20179;-78
2021/05/14 05:28:32;;;;;;;5.43;3.60;;;12.20;1.00;;;;;;5115363;28;20217;-78
2021/05/14 05:30:58;;;;;;;6.57;4.10;;;12.10;1.00;;;;;;5096673;28;20226;-79
2021/05/14 05:33:25;;;;;;;8.13;4.07;;;12.20;1.00;;;;;;5115072;28;20170;-78
2021/05/14 05:35:50;;;;;;;7.27;3.80;;;12.40;1.00;;;;;;5115362;28;20273;-78
2021/05/14 05:38:21;;;;;;;6.67;4.50;;;12.70;1.00;;;;;;5114770;28;20217;-78
2021/05/14 05:40:48;;;;;;;9.47;4.47;;;12.80;1.00;;;;;;5096665;28;20171;-77
2021/05/14 05:43:14;;;;;;;6.83;4.47;;;12.80;1.00;;;;;;5114978;28;20171;-78
2021/05/14 05:45:39;;;;;;;7.43;4.67;;;12.90;1.00;;;;;;5114853;28;20640;-78
2021/05/14 05:48:08;;;;;;;6.60;4.40;;;12.90;1.00;;;;;;5115134;28;20171;-78
2021/05/14 05:50:34;;;;;;;7.43;4.67;;;12.80;1.00;;;;;;5115275;28;20194;-77
2021/05/14 05:53:00;;;;;;;6.47;4.43;;;12.60;1.00;;;;;;5114843;28;20171;-78
2021/05/14 05:55:25;;;;;;;7.53;5.17;;;12.60;1.00;;;;;;5096532;28;20556;-77
2021/05/14 05:57:51;;;;;;;8.87;5.90;;;12.50;1.00;;;;;;5114912;28;20230;-77
2021/05/14 06:00:17;;;;;;;7.63;5.30;;;12.50;1.00;;;;;;5114714;28;20171;-78
2021/05/14 06:02:43;;;;;;;8.27;6.60;;;12.40;1.00;;;;;;5114770;28;20538;-78
2021/05/14 06:05:09;;;;;;;8.97;5.67;;;12.40;1.00;;;;;;5114374;28;20171;-78
2021/05/14 06:07:35;;;;;;;8.60;6.13;;;12.60;1.00;;;;;;5095379;28;20541;-78
2021/05/14 06:10:04;;;;;;;8.97;5.50;;;12.70;1.00;;;;;;5114438;28;20162;-77
2021/05/14 06:12:30;;;;;;;9.77;5.80;;;12.80;1.00;;;;;;5114358;28;20186;-79
2021/05/14 06:14:57;;;;;;;9.63;6.27;;;12.90;1.00;;;;;;5095919;28;20171;-79
2021/05/14 06:17:23;;;;;;;9.80;5.50;;;13.00;1.00;;;;;;5096700;28;20182;-78
2021/05/14 06:19:52;;;;;;;13.10;6.00;;;13.00;1.00;;;;;;5096591;28;20179;-79
2021/05/14 06:22:17;;;;;;;8.10;5.57;;;13.20;1.00;;;;;;5114715;28;20174;-79
2021/05/14 06:24:43;;;;;;;9.00;7.10;;;13.10;1.00;;;;;;5114104;28;20175;-77
2021/05/14 06:27:32;;;;;;;11.87;8.27;;;13.20;1.00;;;;;;5030768;27;20599;-78
2021/05/14 06:30:07;;;;;;;13.77;9.03;;;13.10;1.00;;;;;;5031159;28;20705;-79
2021/05/14 06:32:33;;;;;;;15.20;8.67;;;13.10;1.00;;;;;;5030202;28;20175;-78
2021/05/14 06:34:59;;;;;;;12.63;9.10;;;13.20;1.00;;;;;;5028431;28;20178;-78
2021/05/14 06:37:25;;;;;;;15.37;10.40;;;13.10;1.00;;;;;;5029827;28;20173;-79
2021/05/14 06:39:50;;;;;;;15.63;10.43;;;13.10;1.00;;;;;;5028806;28;20207;-79
2021/05/14 06:42:25;;;;;;;13.93;10.30;;;13.20;1.00;;;;;;5030182;28;20158;-79
2021/05/14 06:44:53;;;;;;;16.17;11.00;;;13.60;1.00;;;;;;5029558;28;20243;-78
2021/05/14 06:47:21;;;;;;;15.53;10.67;;;13.60;1.00;;;;;;5029593;28;20174;-78
2021/05/14 06:49:46;;;;;;;14.17;11.30;;;13.60;1.00;;;;;;5029456;28;20223;-79
2021/05/14 06:52:12;;;;;;;14.80;10.83;;;13.60;1.00;;;;;;5029276;28;20174;-78
2021/05/14 06:54:37;;;;;;;16.47;11.67;;;14.00;1.00;;;;;;5029715;28;20186;-79
2021/05/14 06:57:03;;;;;;;14.80;10.70;;;14.10;1.00;;;;;;5029254;28;20174;-80
2021/05/14 06:59:29;;;;;;;13.63;8.97;;;14.20;1.00;;;;;;5029066;28;20272;-78
2021/05/14 07:01:55;;;;;;;14.43;9.13;;;14.20;1.00;;;;;;5029107;28;20217;-80
2021/05/14 07:04:20;;;;;;;10.67;7.80;;;14.20;1.00;;;;;;5027771;28;20200;-79
2021/05/14 07:06:46;;;;;;;10.27;6.80;;;14.20;1.00;;;;;;5028749;28;20209;-80
2021/05/14 07:09:12;;;;;;;9.63;6.30;;;14.20;1.00;;;;;;5029423;28;20173;-79
2021/05/14 07:11:38;;;;;;;8.60;6.23;;;14.10;1.00;;;;;;5029044;28;20174;-79
2021/05/14 07:14:04;;;;;;;6.80;4.87;;;14.30;1.00;;;;;;5028879;28;20181;-80
2021/05/14 07:16:29;;;;;;;8.60;5.13;;;14.40;1.00;;;;;;5029133;28;20173;-80
2021/05/14 07:18:55;;;;;;;6.47;4.50;;;14.30;1.00;;;;;;5028732;28;20198;-78
2021/05/14 07:21:22;;;;;;;8.03;5.40;;;14.40;1.00;;;;;;5027416;28;20177;-80
2021/05/14 07:23:47;;;;;;;6.30;4.20;;;14.60;1.00;;;;;;5027808;28;20535;-79
2021/05/14 07:26:17;;;;;;;5.67;4.13;;;14.80;1.00;;;;;;5026683;28;20218;-78
2021/05/14 07:28:43;;;;;;;6.93;3.53;;;14.90;1.00;;;;;;5028904;28;20175;-79
2021/05/14 07:31:09;;;;;;;7.07;4.03;;;14.80;1.00;;;;;;5027527;28;20240;-79
2021/05/14 07:33:37;;;;;;;6.43;4.17;;;14.90;1.00;;;;;;5028433;28;20634;-81
2021/05/14 07:36:04;;;;;;;6.10;3.90;;;15.00;99.90;;;;;;5028808;28;20246;-78
2021/05/14 07:38:30;;;;;;;7.63;4.53;;;15.10;99.90;;;;;;5016169;28;20166;-79
2021/05/14 07:40:56;;;;;;;6.53;3.83;;;15.10;99.90;;;;;;5013970;28;20206;-81
2021/05/14 07:43:21;;;;;;;7.57;4.57;;;15.30;99.90;;;;;;5015495;28;20170;-79
2021/05/14 07:45:47;;;;;;;9.40;5.30;;;15.40;99.90;;;;;;5015484;28;20289;-80
2021/05/14 07:48:21;;;;;;;6.80;4.63;;;15.60;1.00;;;;;;5014959;28;20256;-79
2021/05/14 07:50:51;;;;;;;6.10;4.60;;;15.80;1.00;;;;;;5013973;28;20237;-79
2021/05/14 07:53:17;;;;;;;6.17;3.97;;;15.50;99.90;;;;;;5015084;28;20181;-80
2021/05/14 07:55:42;;;;;;;9.43;4.23;;;15.60;99.90;;;;;;5015174;28;20179;-79
2021/05/14 07:58:08;;;;;;;6.10;3.97;;;15.60;99.90;;;;;;5015179;28;20163;-79
2021/05/14 08:00:34;;;;;;;7.13;4.30;;;15.80;1.00;;;;;;5015429;28;20174;-80
2021/05/14 08:03:00;;;;;;;8.87;4.50;;;15.60;1.00;;;;;;5014344;28;20192;-80
2021/05/14 08:05:25;;;;;;;5.13;3.90;;;15.70;1.00;;;;;;5014860;28;20353;-79
2021/05/14 08:08:08;;;;;;;6.27;4.17;;;15.90;1.00;;;;;;5014996;28;20163;-79
2021/05/14 08:10:34;;;;;;;5.67;3.90;;;16.20;1.00;;;;;;5015041;28;20179;-79
2021/05/14 08:13:00;;;;;;;7.40;3.97;;;16.10;1.00;;;;;;5013388;28;20179;-79
2021/05/14 08:15:26;;;;;;;9.97;4.60;;;16.00;1.00;;;;;;5014663;28;20171;-79
2021/05/14 08:17:52;;;;;;;6.20;4.20;;;16.10;99.90;;;;;;5013990;28;20162;-79
2021/05/14 08:20:21;;;;;;;9.03;5.03;;;16.10;1.00;;;;;;5014361;28;20180;-79
2021/05/14 08:22:48;;;;;;;6.90;4.50;;;15.90;1.00;;;;;;5014151;28;20171;-79
2021/05/14 08:25:14;;;;;;;6.00;4.53;;;15.60;99.90;;;;;;5012678;28;20697;-80
2021/05/14 08:27:41;;;;;;;5.70;4.27;;;15.70;1.00;;;;;;5014436;28;20179;-79
2021/05/14 08:30:09;;;;;;;5.87;4.20;;;15.90;1.00;;;;;;5014294;28;20237;-79
2021/05/14 08:32:35;;;;;;;9.23;4.87;;;16.10;1.00;;;;;;5014858;28;20230;-80
2021/05/14 08:35:01;;;;;;;6.60;4.07;;;16.20;99.90;;;;;;5014654;28;20171;-79
2021/05/14 08:37:27;;;;;;;5.17;3.77;;;16.30;1.00;;;;;;5014563;28;20205;-80
2021/05/14 08:39:53;;;;;;;5.43;3.90;;;16.50;1.00;;;;;;5014150;28;20202;-80
2021/05/14 08:42:19;;;;;;;6.47;4.27;;;16.50;99.90;;;;;;5014018;28;20693;-79
2021/05/14 08:44:45;;;;;;;6.37;3.87;;;16.50;90.50;;;;;;5013547;28;20177;-79
2021/05/14 08:47:12;;;;;;;7.00;4.80;;;16.60;99.90;;;;;;5012534;28;20212;-79
2021/05/14 08:49:38;;;;;;;7.23;4.13;;;16.60;1.00;;;;;;5011689;28;20278;-79
2021/05/14 08:52:07;;;;;;;6.30;4.67;;;16.70;1.00;;;;;;5014175;28;20628;-79
2021/05/14 08:54:35;;;;;;;6.10;4.93;;;16.70;1.00;;;;;;5013992;28;20206;-80
2021/05/14 08:57:01;;;;;;;6.80;5.10;;;16.40;99.90;;;;;;5013598;28;20182;-80
2021/05/14 08:59:27;;;;;;;5.57;4.60;;;16.20;1.00;;;;;;5011944;28;20620;-80
2021/05/14 09:01:53;;;;;;;8.33;5.30;;;16.10;1.00;;;;;;5013530;28;20189;-80
2021/05/14 09:04:19;;;;;;;7.50;6.00;;;16.30;1.00;;;;;;5013518;28;20186;-80
2021/05/14 09:06:46;;;;;;;7.50;5.33;;;16.30;1.00;;;;;;5013880;28;20211;-78
2021/05/14 09:09:14;;;;;;;6.97;5.37;;;16.10;99.90;;;;;;5013699;28;20245;-80
2021/05/14 09:11:43;;;;;;;7.60;6.57;;;16.00;1.00;;;;;;5013672;28;20170;-79
2021/05/14 09:14:45;;;;;;;8.20;6.93;;;16.00;1.00;;;;;;5013326;28;20175;-79
2021/05/14 09:17:12;;;;;;;9.83;7.20;;;16.10;99.90;;;;;;5011449;28;20188;-79
2021/05/14 09:19:40;;;;;;;9.80;7.37;;;16.10;1.00;;;;;;5013211;28;20186;-80
2021/05/14 09:22:07;;;;;;;7.80;7.00;;;16.10;1.00;;;;;;5013672;28;20174;-79
2021/05/14 09:24:33;;;;;;;8.33;7.47;;;16.10;2.00;;;;;;5013498;28;20168;-78
2021/05/14 09:26:59;;;;;;;10.83;7.17;;;16.20;1.00;;;;;;5013743;28;20665;-79
2021/05/14 09:29:38;;;;;;;20.33;16.97;;;16.20;2.00;;;;;;5013384;28;20172;-80
2021/05/14 09:32:30;;;;;;;11.77;8.63;;;16.40;1.00;;;;;;5013771;28;20236;-80
2021/05/14 09:35:01;;;;;;;10.03;8.27;;;16.40;99.90;;;;;;5013435;28;20163;-79
2021/05/14 09:37:28;;;;;;;10.30;8.63;;;16.60;1.00;;;;;;5013084;28;20193;-78
2021/05/14 09:40:12;;;;;;;10.97;8.60;;;16.60;1.00;;;;;;5012888;28;20170;-79
2021/05/14 09:42:38;;;;;;;10.80;9.03;;;16.50;99.90;;;;;;5012015;28;20207;-79
2021/05/14 09:45:15;;;;;;;8.73;7.77;;;16.50;99.90;;;;;;5012726;28;20253;-78
2021/05/14 09:47:41;;;;;;;9.03;6.87;;;16.40;99.90;;;;;;5013321;28;20177;-80
2021/05/14 09:50:26;;;;;;;8.93;6.30;;;16.50;99.90;;;;;;5013116;28;20169;-80
2021/05/14 09:53:08;;;;;;;9.13;5.63;;;16.90;99.90;;;;;;5013067;28;20162;-80
2021/05/14 09:55:36;;;;;;;7.67;5.23;;;17.20;99.90;;;;;;5011536;28;20668;-81
2021/05/14 09:58:18;;;;;;;6.43;4.40;;;17.50;1.00;;;;;;5012866;28;20249;-80
2021/05/14 10:00:44;;;;;;;4.30;3.13;;;17.50;99.90;;;;;;5012878;28;20181;-80
2021/05/14 10:03:13;;;;;;;6.13;4.17;;;17.60;1.00;;;;;;5013430;28;20193;-81
2021/05/14 10:05:40;;;;;;;5.87;4.70;;;17.60;1.00;;;;;;5012693;28;20643;-79
2021/05/14 10:08:06;;;;;;;6.57;4.13;;;17.70;1.00;;;;;;5012772;28;20193;-81
2021/05/14 10:10:35;;;;;;;4.83;3.67;;;17.90;1.00;;;;;;5012389;28;20228;-80
2021/05/14 10:13:01;;;;;;;7.37;3.80;;;17.80;99.90;;;;;;5012717;28;20171;-79
2021/05/14 10:15:27;;;;;;;5.47;4.17;;;17.90;99.90;;;;;;5012965;28;20662;-79
2021/05/14 10:17:54;;;;;;;4.53;3.60;;;18.10;99.90;;;;;;5011344;28;20656;-80
2021/05/14 10:20:26;;;;;;;5.40;3.30;;;18.30;99.90;;;;;;5012548;28;20208;-80
2021/05/14 10:22:53;;;;;;;5.27;3.73;;;18.50;84.90;;;;;;5011564;28;20761;-78
2021/05/14 10:25:34;;;;;;;6.07;4.00;;;18.50;1.00;;;;;;5012025;28;20206;-80
2021/05/14 10:28:21;;;;;;;6.77;4.37;;;18.40;1.00;;;;;;5011766;28;20184;-79
2021/05/14 10:31:09;;;;;;;5.17;4.27;;;18.30;12.40;;;;;;5011294;28;20559;-79
2021/05/14 10:33:48;;;;;;;5.43;3.47;;;18.10;86.80;;;;;;5012669;28;20173;-80
2021/05/14 10:36:20;;;;;;;5.00;3.60;;;17.70;67.00;;;;;;5010945;28;20170;-80
2021/05/14 10:39:11;;;;;;;4.63;3.37;;;17.70;1.00;;;;;;5012324;28;20174;-80
2021/05/14 10:41:58;;;;;;;5.57;3.90;;;17.50;99.90;;;;;;5012176;28;20173;-81
2021/05/14 10:44:46;;;;;;;6.03;4.07;;;17.50;99.90;;;;;;5011918;28;20474;-79
2021/05/14 10:47:23;;;;;;;4.97;3.77;;;17.50;99.90;;;;;;5012276;28;20274;-78
2021/05/14 10:50:15;;;;;;;4.43;3.87;;;17.60;99.90;;;;;;5012325;28;20174;-79
2021/05/14 10:53:37;;;;;;;7.07;3.17;;;17.60;99.90;;;;;;5012071;28;20647;-81
2021/05/14 10:56:08;;;;;;;3.63;2.73;;;17.70;1.00;;;;;;5014223;28;20191;-79
2021/05/14 10:59:01;;;;;;;5.20;3.33;;;17.80;6.80;;;;;;5012517;28;20178;-81
2021/05/14 11:01:32;;;;;;;5.87;3.50;;;18.00;1.00;;;;;;5012356;28;20174;-81
2021/05/14 11:03:59;;;;;;;7.57;4.73;;;18.10;1.00;;;;;;5012350;28;20189;-81
2021/05/14 11:06:25;;;;;;;6.03;3.93;;;18.40;1.00;;;;;;5012405;28;20209;-80
2021/05/14 11:08:56;;;;;;;5.33;3.00;;;18.70;1.00;;;;;;5012702;28;20670;-79
2021/05/14 11:11:22;;;;;;;6.03;3.77;;;18.60;1.00;;;;;;5011788;28;20337;-80
2021/05/14 11:13:49;;;;;;;5.13;3.90;;;18.60;1.00;;;;;;5015353;28;20554;-80
2021/05/14 11:16:37;;;;;;;5.37;3.43;;;18.60;1.00;;;;;;5015820;28;20162;-79
2021/05/14 11:19:28;;;;;;;4.90;3.13;;;18.80;1.00;;;;;;5014019;28;20669;-80
2021/05/14 11:22:10;;;;;;;4.30;3.03;;;18.90;1.00;;;;;;5015478;28;20221;-80
2021/05/14 11:24:42;;;;;;;4.33;3.50;;;19.00;1.00;;;;;;5014054;28;20186;-81
2021/05/14 11:27:23;;;;;;;5.73;4.03;;;19.00;1.00;;;;;;5015110;28;20215;-80
2021/05/14 11:29:54;;;;;;;4.53;3.43;;;19.00;1.00;;;;;;5014399;28;20173;-80
2021/05/14 11:32:22;;;;;;;6.17;3.97;;;18.70;1.00;;;;;;5015413;28;20167;-79
2021/05/14 11:34:58;;;;;;;4.30;3.50;;;18.60;1.00;;;;;;5015418;28;20690;-80
2021/05/14 11:37:33;;;;;;;6.43;3.40;;;18.20;99.90;;;;;;5015062;28;20610;-80
2021/05/14 11:40:14;;;;;;;5.00;3.10;;;17.50;1.00;;;;;;5015068;28;20166;-80
2021/05/14 11:42:51;;;;;;;4.47;3.33;;;17.00;99.90;;;;;;5015290;28;20649;-80
2021/05/14 11:45:21;;;;;;;6.03;3.00;;;16.70;1.00;;;;;;5014248;28;20183;-79
2021/05/14 11:47:58;;;;;;;4.00;3.17;;;16.70;99.90;;;;;;5015333;28;20248;-79
2021/05/14 11:50:27;;;;;;;4.00;3.10;;;16.60;99.90;;;;;;5015068;28;20257;-80
2021/05/14 11:52:53;;;;;;;3.63;2.77;;;16.60;99.90;;;;;;5015212;28;20205;-81
2021/05/14 11:55:19;;;;;;;3.40;2.60;;;16.60;99.90;;;;;;5015025;28;20178;-79
2021/05/14 11:57:51;;;;;;;2.90;2.10;;;16.50;99.90;;;;;;5015044;28;20234;-79
2021/05/14 12:00:26;;;;;;;4.80;2.43;;;16.60;99.90;;;;;;5015487;28;20177;-80
2021/05/14 12:02:52;;;;;;;3.67;2.33;;;16.50;1.00;;;;;;5014873;28;20220;-80
2021/05/14 12:05:20;;;;;;;4.23;2.50;;;16.60;1.00;;;;;;5014685;28;20207;-79
2021/05/14 12:07:45;;;;;;;4.40;2.80;;;16.60;99.90;;;;;;5014316;28;20244;-80
2021/05/14 12:10:14;;;;;;;3.47;2.33;;;16.60;1.00;;;;;;5015040;28;20171;-79
2021/05/14 12:12:42;;;;;;;3.83;2.60;;;16.50;99.90;;;;;;5014695;28;20174;-79
2021/05/14 12:15:16;;;;;;;5.10;3.00;;;16.70;1.00;;;;;;5014809;28;20174;-81
2021/05/14 12:17:43;;;;;;;4.57;2.77;;;16.90;1.00;;;;;;5014650;28;20296;-81
2021/05/14 12:20:23;;;;;;;4.83;2.70;;;17.10;1.00;;;;;;5014352;28;20652;-80
2021/05/14 12:22:50;;;;;;;4.87;2.87;;;17.40;1.00;;;;;;5014033;28;20709;-80
2021/05/14 12:25:16;;;;;;;3.77;2.80;;;17.50;1.00;;;;;;5013582;28;20216;-80
2021/05/14 12:27:42;;;;;;;4.40;3.13;;;17.90;99.90;;;;;;5014037;28;20558;-80
2021/05/14 12:30:10;;;;;;;4.50;3.27;;;18.10;47.10;;;;;;5013897;28;20336;-80
2021/05/14 12:32:38;;;;;;;4.90;3.27;;;18.20;1.00;;;;;;5014207;28;20169;-80
2021/05/14 12:35:06;;;;;;;4.10;2.57;;;18.40;1.00;;;;;;5014232;28;20178;-79
2021/05/14 12:37:32;;;;;;;4.47;3.07;;;18.60;1.00;;;;;;5013745;28;20171;-79
2021/05/14 12:39:57;;;;;;;4.47;2.90;;;19.20;1.00;;;;;;5014488;28;20531;-80
2021/05/14 12:42:27;;;;;;;3.37;2.20;;;19.50;1.00;;;;;;5014288;28;20657;-79
2021/05/14 12:44:53;;;;;;;4.13;2.67;;;19.90;1.00;;;;;;5013700;28;20261;-81
2021/05/14 12:47:22;;;;;;;3.73;2.83;;;19.80;1.00;;;;;;5013616;28;20694;-80
2021/05/14 12:49:51;;;;;;;3.67;3.00;;;19.10;1.00;;;;;;5012195;28;20178;-80
2021/05/14 12:52:28;;;;;;;5.73;3.00;;;18.80;1.00;;;;;;5013741;28;20171;-80
2021/05/14 12:55:03;;;;;;;4.10;2.93;;;18.50;1.00;;;;;;5012377;28;20173;-80
2021/05/14 12:57:32;;;;;;;3.60;2.70;;;18.30;1.00;;;;;;5013805;28;20237;-80
2021/05/14 12:59:59;;;;;;;4.17;2.30;;;18.30;1.00;;;;;;5012172;28;20200;-81